createdAt,value
2022-11-27T00:10:39.368Z,7.1
2022-11-27T00:16:36.454Z,5.9
2022-11-27T00:22:42.197Z,6.1
2022-11-27T00:34:50.424Z,6.3
2022-11-27T00:40:47.144Z,6.7
2022-11-27T00:46:38.489Z,6.4
2022-11-27T00:52:32.108Z,6.5
2022-11-27T00:58:34.978Z,6.2
2022-11-27T01:05:07.100Z,6.5
2022-11-27T01:11:12.462Z,7.5
2022-11-27T01:17:30.066Z,8.7
2022-11-27T01:23:28.706Z,9
2022-11-27T01:29:23.950Z,9.4
2022-11-27T01:41:38.731Z,11.3
2022-11-27T01:47:42.569Z,11.7
2022-11-27T01:53:58.388Z,12.7
2022-11-27T01:59:53.071Z,13.5
2022-11-27T02:05:50.417Z,14.5
2022-11-27T02:11:55.385Z,15.1
2022-11-27T02:19:08.414Z,15.2
2022-11-27T02:25:12.901Z,15.5
2022-11-27T02:31:33.858Z,16.5
2022-11-27T02:50:44.423Z,17.2
2022-11-27T02:56:46.797Z,16.8
2022-11-27T03:02:58.674Z,17.6
2022-11-27T03:09:07.170Z,17.4
2022-11-27T03:15:14.133Z,16.4
2022-11-27T03:21:24.135Z,17
2022-11-27T03:27:32.417Z,17
2022-11-27T03:33:51.793Z,16.8
2022-11-27T03:39:55.914Z,17.5
2022-11-27T03:46:22.107Z,17
2022-11-27T03:52:25.574Z,16.1
2022-11-27T03:58:18.388Z,16.7
2022-11-27T04:04:14.397Z,16.7
2022-11-27T04:10:37.336Z,16.5
2022-11-27T04:17:23.240Z,16.3
2022-11-27T04:23:32.782Z,15.6
2022-11-27T04:30:03.046Z,15.6
2022-11-27T04:36:17.177Z,15.5
2022-11-27T04:55:25.845Z,14.2
2022-11-27T05:01:39.379Z,13.7
2022-11-27T05:07:37.902Z,14.1
2022-11-27T05:13:58.282Z,13.4
2022-11-27T05:20:40.238Z,13.7
2022-11-27T05:27:35.110Z,12.8
2022-11-27T05:34:12.025Z,12.9
2022-11-27T05:40:43.399Z,13.1
2022-11-27T05:46:52.137Z,12.1
2022-11-27T05:52:47.247Z,11.4
2022-11-27T05:58:59.160Z,12
2022-11-27T06:11:36.152Z,11.4
2022-11-27T06:24:36.731Z,11.4
2022-11-27T06:37:28.919Z,10.6
2022-11-27T06:57:16.323Z,10.7
2022-11-27T07:16:50.884Z,10.9
2022-11-27T07:55:30.623Z,13.5
2022-11-27T08:21:22.969Z,14.6
2022-11-27T08:27:28.206Z,15.5
2022-11-27T08:33:29.037Z,16.8
2022-11-27T08:39:39.024Z,17.6
2022-11-27T08:51:59.055Z,17.9
2022-11-27T08:57:49.724Z,16.6
2022-11-27T09:03:41.563Z,18.2
2022-11-27T09:09:34.507Z,18.3
2022-11-27T09:15:25.453Z,18.6
2022-11-27T09:21:19.027Z,22.2
2022-11-27T09:27:10.190Z,19.1
2022-11-27T09:33:19.200Z,17.8
2022-11-27T09:39:32.781Z,19.7
2022-11-27T09:45:29.454Z,17.8
2022-11-27T09:51:21.955Z,17.5
2022-11-27T09:57:30.426Z,18
2022-11-27T10:03:25.816Z,17.4
2022-11-27T10:09:16.877Z,17.2
2022-11-27T10:15:12.058Z,16.6
2022-11-27T10:21:30.215Z,16.6
2022-11-27T10:27:34.023Z,17.8
2022-11-27T10:34:48.103Z,13.4
2022-11-27T10:40:50.686Z,13.2
2022-11-27T10:46:53.468Z,12.7
2022-11-27T10:52:57.865Z,13.3
2022-11-27T10:59:32.954Z,12.4
2022-11-27T11:06:27.978Z,11.7
2022-11-27T11:12:18.781Z,11.4
2022-11-27T11:18:15.769Z,10.2
2022-11-27T11:24:07.722Z,9.8
2022-11-27T11:30:05.920Z,9.3
2022-11-27T11:48:30.772Z,10.2
2022-11-27T11:54:21.250Z,10
2022-11-27T12:00:19.457Z,10
2022-11-27T12:06:15.051Z,9.6
2022-11-27T12:12:09.275Z,9.1
2022-11-27T12:18:09.142Z,8.9
2022-11-27T12:24:01.450Z,9.8
2022-11-27T12:29:53.710Z,9.2
2022-11-27T12:35:44.983Z,9.3
2022-11-27T12:48:22.389Z,8.9
2022-11-27T12:54:13.222Z,8.8
2022-11-27T13:00:04.022Z,8.7
2022-11-27T13:06:07.966Z,7.9
2022-11-27T13:12:02.655Z,7.8
2022-11-27T13:17:58.792Z,7.7
2022-11-27T13:23:49.179Z,7.3
2022-11-27T13:29:40.934Z,7.2
2022-11-27T13:35:31.945Z,7.9
2022-11-27T13:41:22.286Z,7.5
2022-11-27T13:47:21.263Z,8
2022-11-27T13:53:12.367Z,7.4
2022-11-27T13:59:13.549Z,8.2
2022-11-27T14:05:04.907Z,7.6
2022-11-27T14:11:01.209Z,7.9
2022-11-27T14:16:57.391Z,8.3
2022-11-27T14:23:27.491Z,8.1
2022-11-27T14:29:40.562Z,8.2
2022-11-27T14:35:46.105Z,8.2
2022-11-27T14:41:40.000Z,8.4
2022-11-27T14:47:44.327Z,8.7
2022-11-27T14:53:48.401Z,9.2
2022-11-27T14:59:41.446Z,9.6
2022-11-27T15:05:46.448Z,9.1
2022-11-27T15:12:09.260Z,9.6
2022-11-27T15:18:09.219Z,9.1
2022-11-27T15:24:14.830Z,9.8
2022-11-27T15:30:10.369Z,9.7
2022-11-27T15:36:17.535Z,9.2
2022-11-27T15:42:21.124Z,10.4
2022-11-27T15:48:11.900Z,10.2
2022-11-27T15:54:07.774Z,10.2
2022-11-27T15:59:59.851Z,10.7
2022-11-27T16:05:54.736Z,9.8
2022-11-27T16:12:03.337Z,9.6
2022-11-27T16:17:54.855Z,10.4
2022-11-27T16:23:46.825Z,11.3
2022-11-27T16:29:38.175Z,9.5
2022-11-27T16:35:34.838Z,9.5
2022-11-27T16:41:28.127Z,9.9
2022-11-27T16:47:44.729Z,8.9
2022-11-27T16:53:38.397Z,9.1
2022-11-27T16:59:32.239Z,9.1
2022-11-27T17:05:23.612Z,9.5
2022-11-27T17:11:25.493Z,9.9
2022-11-27T17:17:38.463Z,10.5
2022-11-27T17:23:44.106Z,11.9
2022-11-27T17:29:53.783Z,12.1
2022-11-27T17:35:48.218Z,12.1
2022-11-27T17:41:38.173Z,13.6
2022-11-27T17:47:30.887Z,13.3
2022-11-27T17:53:26.740Z,13.5
2022-11-27T17:59:19.994Z,13.5
2022-11-27T18:11:44.329Z,14.6
2022-11-27T18:17:35.879Z,14.5
2022-11-27T18:23:27.449Z,15.4
2022-11-27T18:29:18.594Z,17.7
2022-11-27T18:35:12.120Z,16.4
2022-11-27T18:41:04.415Z,15.4
2022-11-27T18:46:56.493Z,14.8
2022-11-27T18:52:47.543Z,17.1
2022-11-27T18:58:45.515Z,15.1
2022-11-27T19:04:37.966Z,15.8
2022-11-27T19:10:27.956Z,15.6
2022-11-27T19:23:28.503Z,16.9
2022-11-27T19:29:29.765Z,16
2022-11-27T19:35:38.296Z,16.7
2022-11-27T19:41:32.752Z,15.8
2022-11-27T19:47:56.560Z,15.6
2022-11-27T19:54:12.806Z,15.9
2022-11-27T20:00:19.462Z,15.1
2022-11-27T20:06:20.137Z,14
2022-11-27T20:12:22.017Z,14.1
2022-11-27T20:18:31.096Z,12.9
2022-11-27T20:24:29.055Z,12.5
2022-11-27T20:30:24.267Z,11.6
2022-11-27T20:36:19.785Z,11.5
2022-11-27T20:42:22.754Z,10.9
2022-11-27T20:56:09.473Z,11.6
2022-11-27T21:02:05.613Z,10.9
2022-11-27T21:08:11.452Z,11.5
2022-11-27T21:14:03.287Z,10.7
2022-11-27T21:19:54.818Z,11
2022-11-27T21:25:46.663Z,11.8
2022-11-27T21:31:51.113Z,11
2022-11-27T21:37:43.398Z,10.9
2022-11-27T21:43:38.554Z,10.3
2022-11-27T21:49:27.652Z,13.3
2022-11-27T21:55:19.138Z,11.6
2022-11-27T22:01:11.312Z,12.5
2022-11-27T22:07:03.253Z,12.2
2022-11-27T22:12:55.077Z,11.8
2022-11-27T22:18:48.705Z,13
2022-11-27T22:24:48.593Z,11.6
2022-11-27T22:30:40.720Z,12
2022-11-27T22:36:33.877Z,12.1
2022-11-27T22:42:25.422Z,11.9
2022-11-27T22:48:26.396Z,12
2022-11-27T22:54:25.590Z,12.2
2022-11-27T23:00:22.957Z,12.4
2022-11-27T23:06:14.200Z,13
2022-11-27T23:12:06.463Z,11.6
2022-11-27T23:18:00.368Z,11.6
2022-11-27T23:23:51.447Z,11.7
2022-11-27T23:29:44.403Z,11.7
2022-11-27T23:35:39.075Z,12.7
2022-11-27T23:41:29.956Z,11.8
2022-11-27T23:47:21.028Z,11.8
2022-11-27T23:53:14.755Z,11.8
2022-11-27T23:59:09.782Z,11.9
